Wilmore, KS (67155)

12:42 AM CDT on May 26, 2015 (GMT -0500)
Pratt Industrial | | Change Station
CLOSE
Current Station
Airport
Location: Pratt,
Elevation: 1952 ft
Nearby Weather Stations

Elev 1952 ft 37.70 °N, 98.75 °W | Updated 7 minutes ago

Mostly Cloudy
Mostly Cloudy
59 °F
Feels Like 59 °F
N
9
Wind Variable Wind from South

Today
High -- | Low -- °F
--% Chance of Precip.
Yesterday
High -- | Low -- °F
Precip. -- in
6:20 AM 8:47 PM
First Quarter, 55% visible
Pressure 29.89 in
Visibility 10.0 miles
Clouds Scattered Clouds 2100 ft
Scattered Clouds 3900 ft
Overcast 9000 ft
Dew Point 54 °F
Humidity 82%
Rainfall 0.00 in
Snow Depth Not available.
UV 0 out of 12
Pollen 7.60 out of 12
Air Quality Not available.
Flu Activity No Activity
METAR KPTT 260535Z AUTO 17008KT 10SM -RA SCT021 SCT039 OVC090 15/12 A2989 RMK AO2 LTG DSNT W THRU NE

More Conditions Fewer Conditions

Pressure 29.89 in
Visibility 10.0 miles
Clouds Scattered Clouds 2100 ft
Scattered Clouds 3900 ft
Overcast 9000 ft
Dew Point 54 °F
Humidity 82%
Rainfall 0.00 in
Snow Depth Not available.
UV 0 out of 12
Pollen 7.60 out of 12
Air Quality Not available.
Flu Activity No Activity
METAR KPTT 260535Z AUTO 17008KT 10SM -RA SCT021 SCT039 OVC090 15/12 A2989 RMK AO2 LTG DSNT W THRU NE

More Conditions Fewer Conditions

10-Day Weather Forecast

Almanac

Astronomy

May. 26, 2015 Rise Set
Actual Time
Civil Twilight
Nautical Twilight
Astronomical Twilight
Moon
Length of Visible Light
Length of Day
Tomorrow will be .
, % of the Moon is Illuminated

Today's Extremes

State Highs State Lows

Community

WunderPhotos

Upload Photos

1,824,289 photos uploaded!

WunderBlogs® & News

Nearby

Air Quality

  Air Quality AQ Index Pollutant
Not available.

Snow Depth

Station Depth Elevation

Earthquake Activity

City Distance Mag. Time & Date
Minimum magnitude displayed is 2.5.

Coastal Water Temperatures

Place Temperature

Stations

Nearby Weather Stations

Station Location Temp. Windchill Dew Point Humidity Wind Precip. Elev Updated Type